Time;durP1;ratioP1;P1;durP2;ratioP2;P2;SDS_P1;SDS_P2;PMS_P1;PMS_P2;Temp;Humidity;BMP_temperature;BMP_pressure;BME280_temperature;BME280_humidity;BME280_pressure;Samples;Min_cycle;Max_cycle;Signal;HPM_P1;HPM_P2
2022/06/27 00:01:26;;;;;;;0.75;0.55;;;;;;;11.28;100.00;100636.19;6119200;23;20060;-46
2022/06/27 00:03:52;;;;;;;0.52;0.40;;;;;;;11.24;100.00;100649.03;6119801;23;20002;-45
2022/06/27 00:06:19;;;;;;;6.03;0.40;;;;;;;11.22;100.00;100644.94;6116950;23;20487;-51
2022/06/27 00:08:47;;;;;;;7.25;0.77;;;;;;;11.23;100.00;100649.22;6120504;23;20060;-48
2022/06/27 00:11:12;;;;;;;3.72;0.63;;;;;;;11.23;100.00;100649.22;6117216;23;20010;-45
2022/06/27 00:13:37;;;;;;;2.63;0.15;;;;;;;11.22;100.00;100648.41;6119509;23;20009;-47
2022/06/27 00:16:03;;;;;;;3.72;0.82;;;;;;;11.22;100.00;100647.59;6118240;23;20010;-48
2022/06/27 00:18:28;;;;;;;2.72;0.40;;;;;;;11.15;100.00;100647.53;6119021;23;20384;-45
2022/06/27 00:20:54;;;;;;;7.28;1.25;;;;;;;11.05;100.00;100655.81;6118912;23;20014;-44
2022/06/27 00:23:19;;;;;;;7.00;0.82;;;;;;;11.01;100.00;100654.53;6118369;23;20021;-45
2022/06/27 00:25:45;;;;;;;6.53;0.45;;;;;;;11.02;100.00;100658.00;6120566;23;20073;-44
2022/06/27 00:28:10;;;;;;;4.95;0.70;;;;;;;10.97;100.00;100658.59;6118017;23;20005;-47
2022/06/27 00:30:35;;;;;;;5.57;0.73;;;;;;;10.94;100.00;100666.09;6120823;23;20021;-47
2022/06/27 00:33:01;;;;;;;4.15;0.50;;;;;;;10.87;100.00;100669.53;6115413;23;20010;-44
2022/06/27 00:35:26;;;;;;;3.80;0.40;;;;;;;10.83;100.00;100670.88;6121118;23;20010;-46
2022/06/27 00:37:52;;;;;;;4.60;0.30;;;;;;;10.81;100.00;100675.56;6118533;23;20017;-49
2022/06/27 00:40:17;;;;;;;1.95;1.13;;;;;;;10.78;100.00;100667.16;6117860;23;20010;-48
2022/06/27 00:42:42;;;;;;;1.48;0.10;;;;;;;10.72;100.00;100673.22;6118987;23;20064;-46
2022/06/27 00:45:09;;;;;;;5.85;0.60;;;;;;;10.69;100.00;100669.94;6118436;23;20002;-50
2022/06/27 00:47:34;;;;;;;4.28;1.08;;;;;;;10.68;100.00;100667.47;6116908;23;20014;-48
2022/06/27 00:50:00;;;;;;;2.50;0.63;;;;;;;10.64;100.00;100667.03;6118776;23;20387;-48
2022/06/27 00:52:26;;;;;;;4.30;0.75;;;;;;;10.60;100.00;100671.03;6116412;23;20056;-49
2022/06/27 00:54:52;;;;;;;4.13;0.43;;;;;;;10.54;100.00;100671.81;6120158;23;20404;-47
2022/06/27 00:57:18;;;;;;;4.82;0.60;;;;;;;10.48;100.00;100659.28;6118918;23;20018;-45
2022/06/27 00:59:44;;;;;;;3.10;0.22;;;;;;;10.44;100.00;100655.38;6118639;23;20009;-47
2022/06/27 01:02:10;;;;;;;6.68;1.10;;;;;;;10.41;100.00;100669.81;6119211;23;20165;-49
2022/06/27 01:04:36;;;;;;;1.30;0.45;;;;;;;10.39;100.00;100674.47;6118565;23;20049;-49
2022/06/27 01:07:04;;;;;;;5.25;0.57;;;;;;;10.35;100.00;100675.00;6118836;23;20112;-48
2022/06/27 01:09:29;;;;;;;3.58;0.50;;;;;;;10.33;100.00;100674.41;6118308;23;20413;-50
2022/06/27 01:11:55;;;;;;;6.65;1.10;;;;;;;10.26;100.00;100669.78;6116453;23;20006;-50
2022/06/27 01:14:20;;;;;;;2.38;0.20;;;;;;;10.31;100.00;100676.41;6116203;23;20049;-50
2022/06/27 01:16:46;;;;;;;1.42;0.40;;;;;;;10.36;100.00;100679.31;6118407;23;20089;-45
2022/06/27 01:19:14;;;;;;;2.58;0.75;;;;;;;10.37;100.00;100681.78;6119715;23;20009;-50
2022/06/27 01:21:44;;;;;;;5.93;0.10;;;;;;;10.32;100.00;100672.75;6119285;23;20036;-47
2022/06/27 01:24:09;;;;;;;3.67;0.52;;;;;;;10.30;100.00;100680.03;6120330;23;20317;-47
2022/06/27 01:26:35;;;;;;;6.22;0.88;;;;;;;10.21;100.00;100677.47;6118912;23;20017;-49
2022/06/27 01:29:00;;;;;;;0.93;0.30;;;;;;;10.12;100.00;100672.44;6119274;23;20443;-46
2022/06/27 01:31:27;;;;;;;3.40;0.25;;;;;;;10.08;100.00;100672.00;6117770;23;20018;-51
2022/06/27 01:33:53;;;;;;;2.38;0.95;;;;;;;10.13;100.00;100674.91;6119284;23;20006;-48
2022/06/27 01:39:03;;;;;;;5.75;0.40;;;;;;;10.02;100.00;100672.72;6118931;23;20021;-52
2022/06/27 01:41:28;;;;;;;3.97;0.32;;;;;;;9.98;100.00;100671.44;6118254;23;20010;-47
2022/06/27 01:43:54;;;;;;;5.53;0.60;;;;;;;9.93;100.00;100679.94;6118745;23;20010;-47
2022/06/27 01:46:19;;;;;;;8.55;1.17;;;;;;;9.96;100.00;100662.84;6116799;23;20014;-46
2022/06/27 01:48:44;;;;;;;4.07;0.22;;;;;;;9.93;100.00;100673.81;6117210;23;20006;-50
2022/06/27 01:51:10;;;;;;;5.80;1.17;;;;;;;9.82;100.00;100675.91;6118542;23;20010;-47
2022/06/27 01:53:37;;;;;;;0.60;0.20;;;;;;;9.76;100.00;100673.19;6117910;23;20013;-49
2022/06/27 01:56:03;;;;;;;0.85;0.10;;;;;;;9.73;100.00;100674.34;6120792;23;20018;-51
2022/06/27 01:58:29;;;;;;;5.18;0.65;;;;;;;9.72;100.00;100675.34;6119390;23;20491;-50
2022/06/27 02:00:55;;;;;;;2.13;1.40;;;;;;;9.70;100.00;100673.88;6121290;23;20297;-49
2022/06/27 02:03:23;;;;;;;4.28;0.93;;;;;;;9.72;100.00;100669.22;6119604;23;20040;-46
2022/06/27 02:05:51;;;;;;;3.80;0.75;;;;;;;9.71;100.00;100676.34;6120862;23;20026;-53
2022/06/27 02:08:19;;;;;;;3.67;0.30;;;;;;;9.67;100.00;100680.34;6119580;23;20048;-52
2022/06/27 02:10:45;;;;;;;1.85;0.20;;;;;;;9.61;100.00;100686.38;6117282;23;20065;-51
2022/06/27 02:13:12;;;;;;;6.05;2.38;;;;;;;9.57;100.00;100682.44;6116593;23;20340;-49
2022/06/27 02:16:08;;;;;;;3.05;0.28;;;;;;;9.54;100.00;100680.16;6119746;23;20431;-51
2022/06/27 02:18:34;;;;;;;2.90;0.60;;;;;;;9.49;100.00;100675.38;6121111;23;20010;-48
2022/06/27 02:21:00;;;;;;;7.57;0.65;;;;;;;9.47;100.00;100674.75;6121446;23;20010;-47
2022/06/27 02:23:26;;;;;;;4.50;1.17;;;;;;;9.49;100.00;100671.94;6120585;23;20002;-46
2022/06/27 02:25:52;;;;;;;4.07;1.25;;;;;;;9.56;100.00;100678.97;6120917;23;20010;-49
2022/06/27 02:28:19;;;;;;;2.35;0.43;;;;;;;9.58;100.00;100670.88;6115338;23;20012;-47
2022/06/27 02:30:45;;;;;;;1.25;0.47;;;;;;;9.59;100.00;100675.13;6119005;23;20013;-48
2022/06/27 02:33:11;;;;;;;2.88;0.95;;;;;;;9.62;100.00;100682.72;6115082;23;20001;-46
2022/06/27 02:35:39;;;;;;;2.17;0.40;;;;;;;9.62;100.00;100677.44;6117198;23;20006;-51
2022/06/27 02:38:06;;;;;;;5.68;0.20;;;;;;;9.59;100.00;100677.78;6116693;23;20018;-47
2022/06/27 02:40:33;;;;;;;8.45;1.10;;;;;;;9.55;100.00;100677.34;6118748;23;20006;-50
2022/06/27 02:42:59;;;;;;;1.92;0.40;;;;;;;9.54;100.00;100678.31;6118236;23;20037;-51
2022/06/27 02:45:32;;;;;;;1.92;0.40;;;;;;;9.54;100.00;100666.91;6117599;23;20010;-51
2022/06/27 02:47:58;;;;;;;0.95;0.25;;;;;;;9.62;100.00;100682.72;6116514;23;20022;-46
2022/06/27 02:50:26;;;;;;;2.63;0.20;;;;;;;9.65;100.00;100678.88;6117182;23;20006;-50
2022/06/27 02:52:55;;;;;;;3.75;0.90;;;;;;;9.64;100.00;100675.44;6118427;23;20396;-48
2022/06/27 02:55:28;;;;;;;3.80;0.70;;;;;;;9.72;100.00;100683.28;6118449;23;20020;-49
2022/06/27 02:58:02;;;;;;;4.25;0.50;;;;;;;9.77;100.00;100675.63;6117808;23;20010;-47
2022/06/27 03:00:29;;;;;;;7.75;0.75;;;;;;;9.83;100.00;100674.06;6118104;23;20328;-48
2022/06/27 03:02:57;;;;;;;4.43;0.90;;;;;;;9.89;100.00;100677.84;6118311;23;20347;-47
2022/06/27 03:05:22;;;;;;;8.02;0.70;;;;;;;9.86;100.00;100684.31;6118705;23;20353;-50
2022/06/27 03:07:48;;;;;;;6.03;0.93;;;;;;;9.83;100.00;100687.31;6118295;23;20048;-47
2022/06/27 03:10:14;;;;;;;9.13;1.13;;;;;;;9.77;100.00;100688.03;6119701;23;19998;-50
2022/06/27 03:12:40;;;;;;;2.75;0.30;;;;;;;9.72;100.00;100688.59;6116209;23;20457;-49
2022/06/27 03:15:06;;;;;;;2.55;0.70;;;;;;;9.71;100.00;100694.88;6117148;23;20006;-48
2022/06/27 03:17:32;;;;;;;5.82;1.63;;;;;;;9.72;100.00;100687.75;6118646;23;20009;-50
2022/06/27 03:19:57;;;;;;;3.67;0.38;;;;;;;9.68;100.00;100687.31;6114804;23;20013;-51
2022/06/27 03:22:23;;;;;;;3.72;0.60;;;;;;;9.61;100.00;100686.38;6116930;23;20002;-49
2022/06/27 03:24:48;;;;;;;0.85;0.20;;;;;;;9.59;100.00;100693.69;6116137;23;20041;-46
2022/06/27 03:27:14;;;;;;;3.88;1.55;;;;;;;9.58;100.00;100690.22;6116835;23;20012;-47
2022/06/27 03:29:39;;;;;;;4.65;0.93;;;;;;;9.54;100.00;100698.69;6117892;23;20032;-50
2022/06/27 03:32:05;;;;;;;3.70;0.45;;;;;;;9.55;100.00;100709.09;6117193;23;20002;-46
2022/06/27 03:34:31;;;;;;;6.43;0.73;;;;;;;9.57;100.00;100700.97;6116581;23;20115;-48
2022/06/27 03:36:57;;;;;;;4.00;0.38;;;;;;;9.54;100.00;100709.28;6115892;23;20010;-45
2022/06/27 03:39:23;;;;;;;2.95;0.77;;;;;;;9.50;100.00;100711.47;6118533;23;20081;-51
2022/06/27 03:41:49;;;;;;;5.47;1.63;;;;;;;9.45;100.00;100707.69;6115386;23;20077;-46
2022/06/27 03:44:15;;;;;;;3.85;0.55;;;;;;;9.42;100.00;100706.22;6117920;23;20017;-47
2022/06/27 03:46:40;;;;;;;2.65;1.00;;;;;;;9.34;100.00;100712.38;6119027;23;20364;-50
2022/06/27 03:51:50;;;;;;;2.50;0.50;;;;;;;9.39;100.00;100709.22;6118407;23;20017;-46
2022/06/27 03:54:16;;;;;;;4.00;1.23;;;;;;;9.38;100.00;100713.69;6118209;23;20018;-50
2022/06/27 03:56:42;;;;;;;0.40;0.40;;;;;;;9.37;100.00;100720.00;6118569;23;20006;-49
2022/06/27 03:59:07;;;;;;;7.70;0.90;;;;;;;9.39;100.00;100720.63;6117992;23;20400;-47
2022/06/27 04:01:33;;;;;;;3.22;0.88;;;;;;;9.34;100.00;100722.16;6118880;23;20011;-48
2022/06/27 04:03:58;;;;;;;1.45;0.30;;;;;;;9.26;100.00;100723.03;6118146;23;20607;-53
2022/06/27 04:06:24;;;;;;;6.85;1.77;;;;;;;9.21;100.00;100727.22;6118256;23;20017;-50
2022/06/27 04:08:49;;;;;;;5.22;1.25;;;;;;;9.15;100.00;100729.56;6117756;23;20100;-48
2022/06/27 04:11:15;;;;;;;9.70;0.35;;;;;;;9.20;100.00;100731.69;6119260;23;20010;-49
2022/06/27 04:13:41;;;;;;;6.38;1.98;;;;;;;9.14;100.00;100730.56;6115650;23;20006;-49
2022/06/27 04:16:07;;;;;;;3.22;0.65;;;;;;;9.14;100.00;100732.41;6117708;23;20096;-47
2022/06/27 04:18:33;;;;;;;4.70;0.93;;;;;;;9.14;100.00;100733.22;6117673;23;20033;-47
2022/06/27 04:20:58;;;;;;;1.75;0.20;;;;;;;9.15;100.00;100723.47;6114858;23;20009;-48
2022/06/27 04:23:24;;;;;;;12.50;1.30;;;;;;;9.13;100.00;100718.34;6117927;23;20013;-48
2022/06/27 04:25:49;;;;;;;10.35;0.88;;;;;;;9.18;100.00;100720.47;6117322;23;20036;-52
2022/06/27 04:28:15;;;;;;;2.85;0.55;;;;;;;9.22;100.00;100728.88;6115851;23;20081;-48
2022/06/27 04:30:40;;;;;;;2.17;1.00;;;;;;;9.24;100.00;100727.72;6115738;23;20124;-50
2022/06/27 04:33:07;;;;;;;3.83;0.73;;;;;;;9.25;100.00;100731.16;6117760;23;20100;-46
2022/06/27 04:35:32;;;;;;;6.47;0.30;;;;;;;9.25;100.00;100725.88;6116444;23;20069;-49
2022/06/27 04:37:58;;;;;;;3.10;0.25;;;;;;;9.32;100.00;100730.28;6117223;23;20010;-45
2022/06/27 04:40:23;;;;;;;4.40;0.55;;;;;;;9.34;100.00;100730.91;6118656;23;20037;-49
2022/06/27 04:42:49;;;;;;;3.97;1.95;;;;;;;9.33;100.00;100724.00;6117547;23;20077;-48
2022/06/27 04:45:15;;;;;;;4.07;0.20;;;;;;;9.43;100.00;100722.94;6118785;23;20064;-45
2022/06/27 04:47:41;;;;;;;2.75;0.20;;;;;;;9.46;100.00;100730.53;6118864;23;20010;-48
2022/06/27 04:50:09;;;;;;;2.65;0.65;;;;;;;9.45;100.00;100728.84;6119453;23;20010;-47
2022/06/27 04:52:37;;;;;;;2.95;0.73;;;;;;;9.50;100.00;100734.44;6118565;23;20014;-48
2022/06/27 04:55:07;;;;;;;7.05;1.02;;;;;;;9.53;100.00;100732.28;6121196;23;20403;-49
2022/06/27 04:57:33;;;;;;;10.25;0.40;;;;;;;9.50;100.00;100732.63;6118793;23;20009;-52
2022/06/27 04:59:59;;;;;;;5.00;0.60;;;;;;;9.53;100.00;100726.16;6119502;23;20009;-53
2022/06/27 05:02:24;;;;;;;4.35;1.05;;;;;;;9.54;100.00;100733.91;6118113;23;20018;-44
2022/06/27 05:04:50;;;;;;;6.72;0.70;;;;;;;9.56;100.00;100737.22;6119595;23;20288;-47
2022/06/27 05:07:15;;;;;;;4.00;0.65;;;;;;;9.62;100.00;100730.38;6119704;23;20009;-44
2022/06/27 05:09:41;;;;;;;7.35;1.35;;;;;;;9.69;100.00;100736.59;6119943;23;20010;-46
2022/06/27 05:12:06;;;;;;;7.65;2.30;;;;;;;9.73;100.00;100731.75;6117370;23;20020;-47
2022/06/27 05:14:32;;;;;;;9.52;1.38;;;;;;;9.77;100.00;100730.41;6115855;23;20006;-47
2022/06/27 05:16:58;;;;;;;8.55;0.60;;;;;;;9.76;100.00;100732.25;6117203;23;20009;-49
2022/06/27 05:19:23;;;;;;;5.57;1.13;;;;;;;9.79;100.00;100731.06;6119736;23;20026;-45
2022/06/27 05:21:49;;;;;;;11.88;1.83;;;;;;;9.87;100.00;100725.69;6121025;23;20061;-49
2022/06/27 05:24:16;;;;;;;5.13;0.47;;;;;;;9.92;100.00;100735.75;6120067;23;20336;-46
2022/06/27 05:26:41;;;;;;;2.92;0.40;;;;;;;9.96;100.00;100737.00;6117484;23;20612;-44
2022/06/27 05:29:07;;;;;;;7.30;0.68;;;;;;;10.05;100.00;100736.75;6116944;23;20006;-45
2022/06/27 05:31:32;;;;;;;10.68;1.92;;;;;;;10.15;100.00;100741.81;6119485;23;20006;-48
2022/06/27 05:33:58;;;;;;;10.10;0.50;;;;;;;10.24;100.00;100746.00;6119416;23;20005;-44
2022/06/27 05:36:23;;;;;;;9.60;1.23;;;;;;;10.36;100.00;100743.75;6120372;23;20021;-51
2022/06/27 05:38:49;;;;;;;10.43;0.57;;;;;;;10.41;100.00;100745.88;6116785;23;20027;-50
2022/06/27 05:41:15;;;;;;;4.10;0.47;;;;;;;10.45;100.00;100736.53;6118540;23;20107;-47
2022/06/27 05:43:41;;;;;;;4.53;1.35;;;;;;;10.54;100.00;100740.72;6119014;23;20406;-46
2022/06/27 05:46:06;;;;;;;5.15;1.40;;;;;;;10.59;100.00;100738.34;6118508;23;20118;-48
2022/06/27 05:48:32;;;;;;;4.53;1.48;;;;;;;10.62;100.00;100747.75;6117983;23;20122;-50
2022/06/27 05:50:59;;;;;;;5.43;1.50;;;;;;;10.68;100.00;100731.91;6119871;23;20029;-50
2022/06/27 05:53:28;;;;;;;3.15;0.20;;;;;;;10.71;100.00;100746.63;6119579;23;20025;-48
2022/06/27 05:55:53;;;;;;;5.90;0.30;;;;;;;10.78;100.00;100747.53;6117396;23;20360;-48
2022/06/27 05:58:19;;;;;;;4.45;0.95;;;;;;;10.85;100.00;100748.47;6118873;23;20057;-45
2022/06/27 06:00:45;;;;;;;6.10;0.85;;;;;;;10.93;100.00;100747.53;6118187;23;20049;-43
2022/06/27 06:03:11;;;;;;;8.15;0.85;;;;;;;11.02;100.00;100743.75;6121002;23;20012;-47
2022/06/27 06:05:37;;;;;;;7.88;2.17;;;;;;;11.09;100.00;100743.81;6118957;23;20384;-51
2022/06/27 06:08:04;;;;;;;9.25;0.85;;;;;;;11.12;100.00;100741.59;6118499;23;20012;-48
2022/06/27 06:10:33;;;;;;;3.47;1.17;;;;;;;11.20;100.00;100745.16;6116885;23;20088;-46
2022/06/27 06:13:01;;;;;;;3.50;0.47;;;;;;;11.28;100.00;100740.56;6118586;23;20358;-46
2022/06/27 06:15:27;;;;;;;5.93;1.20;;;;;;;11.40;100.00;100740.88;6119589;23;20076;-49
2022/06/27 06:17:54;;;;;;;6.55;0.70;;;;;;;11.55;100.00;100733.66;6121396;23;20432;-47
2022/06/27 06:20:20;;;;;;;3.75;0.30;;;;;;;11.69;100.00;100739.06;6119832;23;20006;-47
2022/06/27 06:22:45;;;;;;;4.82;0.52;;;;;;;11.77;100.00;100738.94;6114061;23;20089;-50
2022/06/27 06:25:11;;;;;;;7.70;1.15;;;;;;;11.86;100.00;100729.84;6119679;23;20424;-46
2022/06/27 06:27:40;;;;;;;3.05;0.50;;;;;;;11.95;100.00;100728.69;6118446;23;20021;-45
2022/06/27 06:30:07;;;;;;;4.32;0.32;;;;;;;12.04;100.00;100728.53;6119103;23;20016;-45
2022/06/27 06:32:34;;;;;;;6.88;0.82;;;;;;;12.18;100.00;100730.25;6116444;23;20010;-44
2022/06/27 06:35:00;;;;;;;4.03;0.82;;;;;;;12.26;100.00;100729.28;6117781;23;20400;-47
2022/06/27 06:37:27;;;;;;;9.88;0.73;;;;;;;12.33;100.00;100725.63;6118408;23;20471;-52
2022/06/27 06:39:53;;;;;;;9.57;1.60;;;;;;;12.47;100.00;100723.03;6117712;23;20010;-46
2022/06/27 06:42:18;;;;;;;13.30;1.25;;;;;;;12.61;100.00;100716.78;6119239;23;20377;-45
2022/06/27 06:44:44;;;;;;;6.28;0.60;;;;;;;12.71;100.00;100706.59;6119790;23;20025;-50
2022/06/27 06:47:10;;;;;;;13.02;0.50;;;;;;;12.88;100.00;100723.84;6118972;23;20006;-47
2022/06/27 06:49:35;;;;;;;7.13;1.88;;;;;;;13.22;100.00;100724.75;6117798;23;20513;-46
2022/06/27 06:52:01;;;;;;;3.13;0.25;;;;;;;13.57;100.00;100726.44;6116050;23;20192;-47
2022/06/27 06:54:31;;;;;;;5.65;0.70;;;;;;;13.75;100.00;100707.97;6115388;23;20093;-46
2022/06/27 06:56:58;;;;;;;4.43;1.20;;;;;;;14.13;100.00;100713.47;6113091;23;20006;-46
2022/06/27 06:59:23;;;;;;;8.30;0.68;;;;;;;14.37;100.00;100697.81;6113170;23;20016;-50
2022/06/27 07:01:50;;;;;;;1.67;0.82;;;;;;;14.36;100.00;100688.16;6112583;23;20006;-44
2022/06/27 07:04:16;;;;;;;11.98;0.35;;;;;;;14.30;100.00;100689.84;6110622;23;20006;-46
2022/06/27 07:06:43;;;;;;;6.50;0.40;;;;;;;14.39;100.00;100691.22;6109315;23;20344;-47
2022/06/27 07:09:09;;;;;;;6.82;0.55;;;;;;;14.35;100.00;100686.50;6110056;23;20014;-53
2022/06/27 07:11:39;;;;;;;3.95;0.50;;;;;;;14.28;100.00;100688.41;6116222;23;20096;-48
2022/06/27 07:14:05;;;;;;;8.30;0.73;;;;;;;14.27;100.00;100684.09;6109957;23;20336;-48
2022/06/27 07:16:31;;;;;;;3.72;0.95;;;;;;;14.29;100.00;100690.03;6117746;23;20444;-45
2022/06/27 07:19:00;;;;;;;3.85;0.28;;;;;;;14.28;100.00;100677.75;6112567;23;20064;-46
2022/06/27 07:21:28;;;;;;;9.55;1.67;;;;;;;14.42;100.00;100676.66;6118732;23;20037;-46
2022/06/27 07:23:53;;;;;;;3.80;0.98;;;;;;;14.64;100.00;100676.38;6116970;23;20006;-46
2022/06/27 07:26:20;;;;;;;3.33;1.30;;;;;;;14.88;100.00;100675.63;6116920;23;20106;-46
2022/06/27 07:28:47;;;;;;;1.02;0.25;;;;;;;15.19;100.00;100680.16;6115382;23;20026;-46
2022/06/27 07:31:13;;;;;;;8.98;0.82;;;;;;;15.67;100.00;100681.44;6120272;23;20006;-46
2022/06/27 07:33:39;;;;;;;8.27;1.33;;;;;;;15.90;100.00;100673.63;6118955;23;20011;-49
2022/06/27 07:36:06;;;;;;;3.42;0.60;;;;;;;15.63;100.00;100673.00;6119776;23;20317;-45
2022/06/27 07:38:38;;;;;;;5.68;1.13;;;;;;;15.36;100.00;100674.25;6118239;23;20010;-48
2022/06/27 07:41:03;;;;;;;;;;;;;;;15.18;100.00;100681.19;6119480;23;20009;-46
2022/06/27 07:43:29;;;;;;;2.10;0.20;;;;;;;14.89;100.00;100684.44;6119641;23;19923;-52
2022/06/27 07:45:56;;;;;;;8.90;0.55;;;;;;;14.51;100.00;100680.72;6119775;23;20018;-49
2022/06/27 07:48:22;;;;;;;7.00;1.33;;;;;;;14.37;100.00;100700.47;6118663;23;20010;-50
2022/06/27 07:50:47;;;;;;;2.67;0.65;;;;;;;14.29;100.00;100706.03;6120458;23;20020;-49
2022/06/27 07:53:18;;;;;;;3.03;0.75;;;;;;;14.26;100.00;100701.94;6119037;23;20017;-47
2022/06/27 07:55:46;;;;;;;3.20;0.73;;;;;;;14.19;100.00;100701.13;6119271;23;20037;-46
2022/06/27 07:58:14;;;;;;;4.50;1.40;;;;;;;14.09;100.00;100719.41;6118007;23;20021;-46
2022/06/27 08:00:42;;;;;;;2.55;0.88;;;;;;;14.00;100.00;100721.50;6118976;23;20029;-49
2022/06/27 08:05:53;;;;;;;1.67;0.20;;;;;;;13.98;100.00;100723.53;6119683;23;20153;-46
2022/06/27 08:08:23;;;;;;;4.18;1.33;;;;;;;14.00;100.00;100732.16;6119730;23;20006;-49
2022/06/27 08:10:49;;;;;;;2.83;1.00;;;;;;;14.09;100.00;100744.22;6119955;23;20013;-52
2022/06/27 08:13:14;;;;;;;8.18;0.30;;;;;;;14.11;100.00;100730.69;6119898;23;20018;-52
2022/06/27 08:15:41;;;;;;;6.35;0.30;;;;;;;14.17;100.00;100738.69;6120498;23;20062;-47
2022/06/27 08:18:08;;;;;;;6.13;1.33;;;;;;;14.25;100.00;100728.81;6120497;23;20416;-48
2022/06/27 08:20:35;;;;;;;2.88;0.43;;;;;;;14.43;100.00;100737.00;6121135;23;20009;-49
2022/06/27 08:23:01;;;;;;;1.20;0.20;;;;;;;14.39;100.00;100741.91;6120940;23;20412;-45
2022/06/27 08:25:26;;;;;;;3.83;0.30;;;;;;;14.41;100.00;100749.72;6121279;23;20005;-47
2022/06/27 08:27:53;;;;;;;2.35;0.32;;;;;;;14.21;100.00;100754.28;6121392;23;20010;-47
2022/06/27 08:30:18;;;;;;;3.42;0.22;;;;;;;13.86;100.00;100767.84;6119779;23;20018;-45
2022/06/27 08:32:43;;;;;;;3.58;0.30;;;;;;;13.66;100.00;100776.66;6121322;23;20032;-48
2022/06/27 08:35:10;;;;;;;3.33;0.47;;;;;;;13.48;100.00;100784.44;6121449;23;20006;-46
2022/06/27 08:37:36;;;;;;;5.88;0.80;;;;;;;13.24;100.00;100794.59;6121336;23;20009;-46
2022/06/27 08:40:04;;;;;;;8.07;1.10;;;;;;;13.11;100.00;100797.19;6121607;23;20014;-48
2022/06/27 08:42:30;;;;;;;2.00;1.02;;;;;;;13.13;100.00;100803.13;6119638;23;20006;-46
2022/06/27 08:44:57;;;;;;;3.20;0.30;;;;;;;13.09;100.00;100805.38;6120863;23;20057;-45
2022/06/27 08:47:23;;;;;;;2.47;0.20;;;;;;;13.16;100.00;100807.25;6122216;23;20446;-47
2022/06/27 08:49:51;;;;;;;2.92;0.43;;;;;;;13.15;100.00;100809.09;6120490;23;20085;-48
2022/06/27 08:52:19;;;;;;;5.30;0.68;;;;;;;13.17;100.00;100812.38;6121655;23;20006;-45
2022/06/27 08:54:45;;;;;;;6.80;0.98;;;;;;;13.27;100.00;100812.03;6120505;23;20006;-48
2022/06/27 08:57:11;;;;;;;0.68;0.20;;;;;;;13.46;100.00;100813.91;6120335;23;20339;-45
2022/06/27 08:59:37;;;;;;;5.28;0.73;;;;;;;13.62;100.00;100801.25;6120947;23;20037;-46
2022/06/27 09:02:03;;;;;;;1.75;0.80;;;;;;;13.84;100.00;100797.38;6120782;23;20089;-46
2022/06/27 09:04:28;;;;;;;1.88;0.80;;;;;;;13.93;100.00;100801.44;6118941;23;20092;-45
2022/06/27 09:06:56;;;;;;;5.63;1.52;;;;;;;14.06;100.00;100805.16;6118741;23;20033;-46
2022/06/27 09:09:24;;;;;;;5.07;1.40;;;;;;;14.22;100.00;100814.56;6121429;23;20021;-44
2022/06/27 09:11:49;;;;;;;5.78;0.65;;;;;;;14.31;100.00;100803.50;6121695;23;20002;-49
2022/06/27 09:14:39;;;;;;;3.90;0.20;;;;;;;14.58;100.00;100806.94;6118043;23;20076;-44
2022/06/27 09:17:09;;;;;;;7.35;0.40;;;;;;;14.92;100.00;100809.50;6120930;23;20021;-44
2022/06/27 09:19:50;;;;;;;3.45;1.05;;;;;;;14.97;100.00;100801.69;6119627;23;20041;-45
2022/06/27 09:22:17;;;;;;;3.75;0.38;;;;;;;14.77;100.00;100801.78;6120920;23;20514;-44
2022/06/27 09:25:22;;;;;;;3.00;0.20;;;;;;;14.58;100.00;100798.13;6120894;23;20005;-50
2022/06/27 09:27:51;;;;;;;0.65;0.10;;;;;;;14.39;100.00;100807.78;6121247;23;20104;-43
2022/06/27 09:30:22;;;;;;;4.43;0.32;;;;;;;14.26;100.00;100810.47;6120314;23;20073;-45
2022/06/27 09:32:53;;;;;;;;;;;;;;;14.18;100.00;100807.00;6121636;23;20494;-48
2022/06/27 09:35:25;;;;;;;0.47;0.00;;;;;;;14.27;100.00;100806.78;6120950;23;19908;-44
2022/06/27 09:37:56;;;;;;;2.33;0.30;;;;;;;14.33;100.00;100813.97;6121822;23;20021;-46
2022/06/27 09:40:23;;;;;;;1.13;0.30;;;;;;;14.45;100.00;100817.63;6121619;23;20033;-47
2022/06/27 09:42:52;;;;;;;3.55;0.10;;;;;;;14.49;100.00;100805.50;6121185;23;20307;-46
2022/06/27 09:45:21;;;;;;;1.73;0.20;;;;;;;14.57;100.00;100805.31;6119009;23;20009;-45
2022/06/27 09:47:47;;;;;;;2.53;0.20;;;;;;;14.64;100.00;100813.31;6119233;23;20030;-45
2022/06/27 09:50:14;;;;;;;1.77;0.10;;;;;;;14.83;100.00;100812.41;6121017;23;20031;-45
2022/06/27 09:52:40;;;;;;;3.08;0.35;;;;;;;15.02;100.00;100794.69;6121293;23;20085;-47
2022/06/27 09:55:07;;;;;;;1.25;0.30;;;;;;;15.09;100.00;100793.81;6120823;23;20006;-48
2022/06/27 09:57:34;;;;;;;3.55;0.47;;;;;;;15.01;100.00;100789.56;6121527;23;20010;-46
2022/06/27 10:00:00;;;;;;;5.68;0.57;;;;;;;15.08;100.00;100789.53;6121901;23;20013;-45
2022/06/27 10:02:27;;;;;;;3.17;0.38;;;;;;;15.08;100.00;100786.88;6121350;23;20024;-47
2022/06/27 10:04:54;;;;;;;0.93;0.28;;;;;;;15.21;100.00;100792.13;6121729;23;20010;-55
2022/06/27 10:07:22;;;;;;;0.25;0.00;;;;;;;15.27;100.00;100788.59;6121474;23;20021;-45
2022/06/27 10:09:57;;;;;;;3.40;0.35;;;;;;;15.49;100.00;100786.41;6121595;23;20021;-44
2022/06/27 10:12:32;;;;;;;0.73;0.20;;;;;;;15.72;100.00;100785.88;6119949;23;20021;-44
2022/06/27 10:15:09;;;;;;;1.65;0.00;;;;;;;15.85;100.00;100785.75;6121640;23;20009;-49
2022/06/27 10:17:46;;;;;;;0.93;0.20;;;;;;;15.76;100.00;100780.91;6120364;23;20024;-49
2022/06/27 10:20:20;;;;;;;1.75;0.20;;;;;;;15.65;100.00;100787.75;6120617;23;20085;-50
2022/06/27 10:23:08;;;;;;;4.47;0.35;;;;;;;15.39;100.00;100778.88;6120390;23;20384;-44
2022/06/27 10:25:38;;;;;;;2.60;0.10;;;;;;;15.45;100.00;100796.69;6121805;23;20072;-48
2022/06/27 10:28:12;;;;;;;2.88;0.00;;;;;;;15.55;100.00;100777.53;6120682;23;20014;-44
2022/06/27 10:30:44;;;;;;;2.40;0.47;;;;;;;15.54;100.00;100785.75;6121626;23;20006;-52
2022/06/27 10:33:30;;;;;;;1.65;0.68;;;;;;;15.64;100.00;100784.25;6121991;23;20042;-48
2022/06/27 10:38:22;;;;;;;1.25;0.20;;;;;;;16.53;100.00;100779.53;6120997;23;20466;-46
2022/06/27 10:40:47;;;;;;;2.38;0.10;;;;;;;16.72;100.00;100766.97;6119022;23;20021;-46
2022/06/27 10:43:36;;;;;;;1.33;0.00;;;;;;;16.54;100.00;100769.66;6120174;23;20022;-48
2022/06/27 10:46:21;;;;;;;1.70;0.35;;;;;;;16.43;100.00;100773.06;6121124;23;20009;-48
2022/06/27 10:48:50;;;;;;;0.65;0.50;;;;;;;16.02;100.00;100771.81;6120398;23;20031;-50
2022/06/27 10:51:33;;;;;;;0.55;0.10;;;;;;;15.65;100.00;100777.84;6118267;23;20037;-47
2022/06/27 10:53:58;;;;;;;1.98;0.00;;;;;;;15.53;100.00;100771.56;6118809;23;20332;-51
2022/06/27 10:56:29;;;;;;;2.47;0.10;;;;;;;15.42;100.00;100783.78;6120691;23;20016;-46
2022/06/27 10:58:56;;;;;;;2.30;0.47;;;;;;;15.32;100.00;100788.78;6120715;23;20049;-53
2022/06/27 11:01:22;;;;;;;0.52;0.00;;;;;;;15.27;100.00;100796.59;6120987;23;20045;-48
2022/06/27 11:03:48;;;;;;;0.55;0.03;;;;;;;15.38;100.00;100787.91;6121248;23;20032;-46
2022/06/27 11:06:14;;;;;;;0.10;0.00;;;;;;;15.59;100.00;100785.91;6121497;23;20021;-48
2022/06/27 11:08:42;;;;;;;1.55;0.22;;;;;;;16.26;100.00;100778.19;6122346;23;20401;-48
2022/06/27 11:11:08;;;;;;;0.77;0.10;;;;;;;17.27;100.00;100775.97;6120308;23;20076;-53
2022/06/27 11:13:47;;;;;;;0.85;0.20;;;;;;;17.83;100.00;100764.00;6121551;23;20028;-46
2022/06/27 11:16:18;;;;;;;0.80;0.00;;;;;;;17.63;100.00;100769.66;6117686;23;20017;-51
2022/06/27 11:18:50;;;;;;;1.40;0.00;;;;;;;16.79;100.00;100762.38;6120943;23;20416;-60
2022/06/27 11:21:21;;;;;;;2.15;0.00;;;;;;;16.56;100.00;100767.56;6119903;23;20041;-52
2022/06/27 11:23:51;;;;;;;1.50;0.10;;;;;;;16.48;100.00;100770.56;6120878;23;20017;-45
2022/06/27 11:26:18;;;;;;;1.65;0.10;;;;;;;16.68;100.00;100765.78;6120820;23;20014;-49
2022/06/27 11:34:12;;;;;;;2.20;1.17;;;;;;;17.16;100.00;100762.28;6121122;23;20037;-48
2022/06/27 11:36:39;;;;;;;0.43;0.00;;;;;;;17.47;100.00;100779.16;6119497;23;20090;-52